Time;durP1;ratioP1;P1;durP2;ratioP2;P2;SDS_P1;SDS_P2;PMS_P1;PMS_P2;Temp;Humidity;BMP_temperature;BMP_pressure;BME280_temperature;BME280_humidity;BME280_pressure;Samples;Min_cycle;Max_cycle;Signal;HPM_P1;HPM_P2
2021/04/22 00:02:23;;;;;;;22.13;4.37;;;;;;;4.55;57.24;100805.44;5041397;28;20199;-69
2021/04/22 00:04:48;;;;;;;15.97;4.03;;;;;;;4.46;57.54;100814.50;5041364;28;20200;-69
2021/04/22 00:07:16;;;;;;;20.30;4.10;;;;;;;4.51;57.71;100806.44;5039324;28;20544;-69
2021/04/22 00:09:42;;;;;;;14.43;3.77;;;;;;;4.46;57.62;100817.16;5034826;28;20206;-69
2021/04/22 00:12:08;;;;;;;18.03;3.77;;;;;;;4.52;57.37;100805.53;5033444;28;20240;-69
2021/04/22 00:14:34;;;;;;;15.57;4.10;;;;;;;4.50;58.08;100804.72;5034424;28;20626;-70
2021/04/22 00:16:59;;;;;;;18.73;3.90;;;;;;;4.43;58.67;100795.19;5034315;28;20629;-69
2021/04/22 00:19:25;;;;;;;13.93;4.33;;;;;;;4.44;58.43;100823.38;5017517;28;20180;-69
2021/04/22 00:21:50;;;;;;;16.00;4.37;;;;;;;4.39;58.04;100816.44;5035265;28;20173;-70
2021/04/22 00:24:15;;;;;;;14.77;4.07;;;;;;;4.31;59.12;100810.50;5034729;28;20196;-70
2021/04/22 00:26:40;;;;;;;20.87;4.47;;;;;;;4.34;58.86;100813.06;5033636;28;20556;-69
2021/04/22 00:29:06;;;;;;;12.53;4.20;;;;;;;4.30;58.98;100802.63;5034996;28;20184;-70
2021/04/22 00:31:31;;;;;;;15.10;4.00;;;;;;;4.27;59.45;100818.56;5033796;28;20676;-69
2021/04/22 00:33:56;;;;;;;17.87;4.80;;;;;;;4.26;59.86;100798.31;5034896;28;20227;-68
2021/04/22 00:36:22;;;;;;;17.13;4.30;;;;;;;4.24;59.53;100808.06;5016828;28;20663;-69
2021/04/22 00:38:47;;;;;;;12.90;3.80;;;;;;;4.24;59.29;100803.66;5033317;28;20644;-70
2021/04/22 00:41:13;;;;;;;14.10;4.40;;;;;;;4.23;59.26;100803.69;5032851;28;20234;-69
2021/04/22 00:43:38;;;;;;;24.57;4.47;;;;;;;4.19;60.15;100796.78;5049461;28;20259;-70
2021/04/22 00:46:04;;;;;;;13.03;4.20;;;;;;;4.15;59.98;100803.03;5033355;28;20168;-69
2021/04/22 00:48:29;;;;;;;12.63;4.07;;;;;;;4.15;60.08;100813.63;5017195;28;20190;-69
2021/04/22 00:50:55;;;;;;;18.37;4.80;;;;;;;4.10;60.58;100823.44;5016821;28;20212;-69
2021/04/22 00:53:21;;;;;;;20.23;4.10;;;;;;;4.10;60.76;100820.78;5049258;28;20176;-70
2021/04/22 00:55:47;;;;;;;19.00;4.73;;;;;;;4.13;60.49;100823.34;5032429;28;20249;-69
2021/04/22 00:58:13;;;;;;;15.27;4.00;;;;;;;4.12;60.59;100822.50;5034211;28;20640;-70
2021/04/22 01:00:44;;;;;;;18.60;4.00;;;;;;;4.16;60.83;100807.41;5049116;28;20183;-70
2021/04/22 01:03:10;;;;;;;20.23;4.37;;;;;;;4.12;60.63;100822.50;5049556;28;20191;-69
2021/04/22 01:05:43;;;;;;;19.10;4.80;;;;;;;4.15;60.40;100816.25;5032399;28;20196;-69
2021/04/22 01:08:08;;;;;;;13.80;3.87;;;;;;;4.08;60.89;100815.53;5032567;28;20196;-69
2021/04/22 01:10:34;;;;;;;21.37;4.20;;;;;;;4.07;60.85;100825.22;5032293;28;20205;-70
2021/04/22 01:12:59;;;;;;;16.47;4.03;;;;;;;4.10;60.49;100818.16;5032519;28;20629;-70
2021/04/22 01:15:27;;;;;;;20.43;4.30;;;;;;;4.13;60.90;100823.34;5048903;28;20537;-70
2021/04/22 01:17:53;;;;;;;12.47;4.03;;;;;;;4.05;61.37;100824.41;5048856;28;20187;-70
2021/04/22 01:20:27;;;;;;;17.27;3.90;;;;;;;3.99;61.30;100819.28;5032805;28;20533;-70
2021/04/22 01:22:53;;;;;;;18.07;4.20;;;;;;;4.00;61.38;100830.72;5032801;28;20167;-70
2021/04/22 01:25:26;;;;;;;21.87;4.20;;;;;;;4.00;61.33;100838.63;5032364;28;20196;-69
2021/04/22 01:27:52;;;;;;;25.03;4.43;;;;;;;3.98;61.54;100829.88;5033828;28;20259;-70
2021/04/22 01:30:21;;;;;;;19.23;4.20;;;;;;;3.88;61.92;100823.13;5031987;28;20195;-70
2021/04/22 01:32:47;;;;;;;24.60;4.63;;;;;;;3.86;62.38;100823.16;5033521;28;20182;-70
2021/04/22 01:35:18;;;;;;;19.60;3.93;;;;;;;3.78;62.08;100822.50;5031778;28;20607;-70
2021/04/22 01:37:43;;;;;;;19.27;3.70;;;;;;;3.75;62.17;100825.22;5032282;28;20517;-70
2021/04/22 01:40:10;;;;;;;22.13;4.17;;;;;;;3.72;62.79;100831.44;5048445;28;20172;-68
2021/04/22 01:42:35;;;;;;;23.63;4.13;;;;;;;3.65;62.94;100831.59;5031597;28;20222;-70
2021/04/22 01:45:00;;;;;;;16.07;4.57;;;;;;;3.67;62.89;100832.41;5031819;28;20603;-70
2021/04/22 01:47:26;;;;;;;18.80;4.70;;;;;;;3.65;63.26;100829.81;5032003;28;20175;-70
2021/04/22 01:49:51;;;;;;;15.83;3.77;;;;;;;3.61;63.26;100833.44;5031760;28;20229;-71
2021/04/22 01:52:17;;;;;;;22.13;4.43;;;;;;;3.53;64.05;100826.63;5015102;28;20591;-71
2021/04/22 01:54:42;;;;;;;26.87;4.33;;;;;;;3.62;63.52;100831.69;5048430;28;20672;-70
2021/04/22 01:57:07;;;;;;;19.23;4.13;;;;;;;3.58;63.98;100830.88;5033543;28;20176;-70
2021/04/22 01:59:33;;;;;;;23.03;4.20;;;;;;;3.61;63.71;100835.22;5031806;28;20186;-70
2021/04/22 02:01:58;;;;;;;12.63;3.53;;;;;;;3.55;63.95;100838.00;5031764;28;20222;-70
2021/04/22 02:04:24;;;;;;;19.17;4.00;;;;;;;3.50;64.42;100829.34;5031532;28;20203;-70
2021/04/22 02:06:49;;;;;;;17.37;3.83;;;;;;;3.57;64.62;100834.44;5032510;28;20537;-70
2021/04/22 02:09:14;;;;;;;23.00;4.20;;;;;;;3.59;64.40;100829.97;5050392;28;20218;-70
2021/04/22 02:11:40;;;;;;;14.70;3.70;;;;;;;3.59;64.75;100831.75;5031756;28;20206;-70
2021/04/22 02:14:05;;;;;;;16.30;3.77;;;;;;;3.63;64.20;100836.03;5015612;28;20219;-69
2021/04/22 02:16:30;;;;;;;13.63;3.63;;;;;;;3.64;64.78;100821.94;5031730;28;20583;-70
2021/04/22 02:18:55;;;;;;;18.00;3.67;;;;;;;3.59;64.77;100823.84;5032796;28;20205;-70
2021/04/22 02:21:21;;;;;;;14.53;3.63;;;;;;;3.65;64.52;100821.91;5032805;28;20171;-70
2021/04/22 02:23:46;;;;;;;15.07;3.33;;;;;;;3.64;64.48;100821.94;5031534;28;20195;-70
2021/04/22 02:26:11;;;;;;;14.73;3.47;;;;;;;3.56;65.25;100826.56;5032888;28;20172;-70
2021/04/22 02:28:37;;;;;;;23.60;5.10;;;;;;;3.60;65.19;100822.94;5033035;28;20533;-70
2021/04/22 02:31:02;;;;;;;16.43;4.50;;;;;;;3.58;65.16;100820.31;5014847;28;20226;-70
2021/04/22 02:33:27;;;;;;;15.03;3.37;;;;;;;3.58;65.19;100830.00;5031703;28;20660;-70
2021/04/22 02:35:53;;;;;;;18.97;4.57;;;;;;;3.57;64.99;100823.88;5032587;28;20199;-70
2021/04/22 02:38:18;;;;;;;21.67;3.60;;;;;;;3.60;65.15;100825.56;5032805;28;20176;-70
2021/04/22 02:40:47;;;;;;;16.30;4.00;;;;;;;3.60;65.06;100826.44;5032637;28;20180;-70
2021/04/22 02:43:14;;;;;;;18.53;4.10;;;;;;;3.61;65.30;100832.59;5048976;28;20272;-70
2021/04/22 02:45:42;;;;;;;16.70;4.10;;;;;;;3.64;65.27;100825.44;5031503;28;20211;-70
2021/04/22 02:48:08;;;;;;;17.67;4.23;;;;;;;3.64;65.43;100822.81;5031313;28;20172;-70
2021/04/22 02:50:37;;;;;;;16.00;3.80;;;;;;;3.69;65.15;100828.84;5048305;28;20606;-70
2021/04/22 02:53:03;;;;;;;17.33;3.70;;;;;;;3.67;65.23;100816.59;5032213;28;20186;-69
2021/04/22 02:55:28;;;;;;;20.70;3.57;;;;;;;3.60;65.72;100815.00;5036184;28;20188;-70
2021/04/22 02:57:54;;;;;;;16.43;4.53;;;;;;;3.56;66.10;100818.63;5019616;28;20190;-70
2021/04/22 03:00:21;;;;;;;18.40;4.20;;;;;;;3.56;66.30;100831.81;5037188;28;20695;-70
2021/04/22 03:02:48;;;;;;;18.57;3.87;;;;;;;3.46;66.62;100825.91;5035747;28;20251;-69
2021/04/22 03:05:14;;;;;;;16.10;3.63;;;;;;;3.46;66.72;100831.19;5036013;28;20200;-69
2021/04/22 03:07:39;;;;;;;16.60;3.93;;;;;;;3.48;66.68;100818.81;5035524;28;20172;-70
2021/04/22 03:10:06;;;;;;;15.47;3.47;;;;;;;3.47;66.93;100826.78;5036770;28;20180;-70
2021/04/22 03:12:31;;;;;;;19.70;4.27;;;;;;;3.42;67.40;100822.47;5034317;28;20172;-69
2021/04/22 03:14:57;;;;;;;12.93;3.97;;;;;;;3.39;67.61;100829.59;5034208;28;20199;-70
2021/04/22 03:17:22;;;;;;;14.43;4.00;;;;;;;3.40;67.24;100832.22;5034306;28;20208;-69
2021/04/22 03:19:47;;;;;;;15.83;3.73;;;;;;;3.37;68.02;100832.28;5034329;28;20186;-69
2021/04/22 03:22:12;;;;;;;16.50;3.87;;;;;;;3.35;67.80;100828.81;5017703;28;20191;-69
2021/04/22 03:24:38;;;;;;;21.63;4.07;;;;;;;3.35;67.73;100828.81;5035213;28;20598;-69
2021/04/22 03:27:04;;;;;;;23.73;4.87;;;;;;;3.35;68.23;100834.09;5035808;28;20260;-69
2021/04/22 03:29:29;;;;;;;14.10;3.67;;;;;;;3.36;68.04;100829.69;5050963;28;20218;-69
2021/04/22 03:31:54;;;;;;;16.20;4.20;;;;;;;3.33;68.13;100841.13;5035334;28;20212;-68
2021/04/22 03:34:19;;;;;;;14.23;3.93;;;;;;;3.27;68.55;100837.78;5035282;28;20188;-69
2021/04/22 03:36:45;;;;;;;19.60;4.20;;;;;;;3.28;68.72;100837.75;5035926;28;20184;-69
2021/04/22 03:39:10;;;;;;;23.07;4.83;;;;;;;3.33;68.45;100845.56;5050619;28;20601;-69
2021/04/22 03:41:36;;;;;;;14.40;3.70;;;;;;;3.26;69.17;100838.69;5034864;28;20180;-70
2021/04/22 03:44:01;;;;;;;24.43;3.90;;;;;;;3.21;69.29;100844.06;5033650;28;20219;-69
2021/04/22 03:46:26;;;;;;;14.13;3.37;;;;;;;3.22;69.17;100851.06;5033626;28;20171;-69
2021/04/22 03:48:52;;;;;;;23.50;4.40;;;;;;;3.32;68.63;100844.69;5033687;28;20183;-70
2021/04/22 03:51:17;;;;;;;19.00;4.40;;;;;;;3.34;68.54;100852.56;5033647;28;20320;-70
2021/04/22 03:53:42;;;;;;;16.63;3.93;;;;;;;3.31;68.94;100852.63;5034922;28;20568;-70
2021/04/22 03:56:08;;;;;;;15.97;3.93;;;;;;;3.34;68.96;100861.34;5033445;28;20529;-69
2021/04/22 03:58:33;;;;;;;22.53;4.03;;;;;;;3.39;68.66;100859.50;5034063;28;20635;-70
2021/04/22 04:01:00;;;;;;;13.43;3.87;;;;;;;3.36;68.72;100863.97;5033483;28;20549;-70
2021/04/22 04:03:26;;;;;;;18.47;4.70;;;;;;;3.45;67.86;100875.19;5049963;28;20190;-69
2021/04/22 04:05:51;;;;;;;16.90;4.17;;;;;;;3.47;68.12;100869.00;5049932;28;20180;-70
2021/04/22 04:08:16;;;;;;;24.23;4.43;;;;;;;3.52;67.88;100875.03;5033377;28;20169;-70
2021/04/22 04:10:42;;;;;;;14.37;3.57;;;;;;;3.58;67.78;100874.88;5034427;28;20608;-70
2021/04/22 04:13:07;;;;;;;21.17;4.13;;;;;;;3.64;67.39;100872.09;5034421;28;20180;-70
2021/04/22 04:15:32;;;;;;;14.00;4.30;;;;;;;3.66;67.59;100880.84;5034511;28;20204;-70
2021/04/22 04:17:59;;;;;;;13.27;3.73;;;;;;;3.64;67.59;100872.09;5033580;28;20179;-73
2021/04/22 04:20:24;;;;;;;18.30;3.40;;;;;;;3.74;66.91;100873.63;5032943;28;20199;-71
2021/04/22 04:22:50;;;;;;;14.90;3.87;;;;;;;3.71;67.00;100878.97;5016507;28;20544;-70
2021/04/22 04:25:15;;;;;;;12.83;4.00;;;;;;;3.70;67.23;100877.22;5034929;28;20203;-70
2021/04/22 04:27:41;;;;;;;15.70;3.53;;;;;;;3.73;66.44;100882.47;5033026;28;20173;-70
2021/04/22 04:30:09;;;;;;;15.27;3.77;;;;;;;3.64;66.86;100877.38;5032603;28;20287;-70
2021/04/22 04:32:34;;;;;;;15.03;3.50;;;;;;;3.63;67.03;100881.78;5034018;28;20180;-69
2021/04/22 04:35:00;;;;;;;18.60;3.80;;;;;;;3.63;66.91;100875.63;5033827;28;20199;-70
2021/04/22 04:37:25;;;;;;;16.63;4.00;;;;;;;3.63;67.06;100883.56;5033452;28;20657;-70
2021/04/22 04:39:51;;;;;;;18.17;4.10;;;;;;;3.52;67.24;100867.97;5016219;28;20600;-70
2021/04/22 04:42:17;;;;;;;16.37;3.47;;;;;;;3.53;67.06;100875.00;5032923;28;20635;-70
2021/04/22 04:44:42;;;;;;;21.70;3.80;;;;;;;3.55;66.96;100882.88;5032646;28;20211;-70
2021/04/22 04:47:07;;;;;;;18.50;4.33;;;;;;;3.57;67.05;100876.66;5017549;28;20184;-69
2021/04/22 04:49:33;;;;;;;21.47;3.80;;;;;;;3.62;66.64;100887.09;5042939;28;20191;-69
2021/04/22 04:51:58;;;;;;;15.43;3.57;;;;;;;3.64;67.02;100890.56;5041981;28;20204;-69
2021/04/22 04:54:23;;;;;;;18.33;3.30;;;;;;;3.63;66.75;100894.97;5044747;28;20203;-70
2021/04/22 04:56:49;;;;;;;18.10;3.60;;;;;;;3.66;66.45;100897.56;5018660;28;20183;-70
2021/04/22 04:59:14;;;;;;;18.83;4.13;;;;;;;3.69;66.50;100894.84;5034227;28;20642;-69
2021/04/22 05:01:39;;;;;;;28.03;3.83;;;;;;;3.74;66.30;100895.63;5032719;28;20595;-69
2021/04/22 05:04:05;;;;;;;17.80;3.50;;;;;;;3.81;66.36;100904.25;5016291;28;20207;-69
2021/04/22 05:06:31;;;;;;;18.77;3.53;;;;;;;3.80;66.07;100901.66;5015835;28;20172;-69
2021/04/22 05:08:56;;;;;;;18.97;3.87;;;;;;;3.85;66.12;100908.56;5033932;28;20200;-70
2021/04/22 05:11:22;;;;;;;22.80;4.37;;;;;;;3.78;66.74;100901.69;5032670;28;20285;-71
2021/04/22 05:13:47;;;;;;;13.20;3.73;;;;;;;3.85;66.05;100903.28;5032432;28;20200;-70
2021/04/22 05:16:14;;;;;;;23.33;4.13;;;;;;;3.94;66.13;100907.47;5033544;28;20183;-70
2021/04/22 05:18:40;;;;;;;19.03;3.97;;;;;;;4.06;65.50;100902.72;5015660;28;20190;-70
2021/04/22 05:21:05;;;;;;;17.30;3.30;;;;;;;4.16;64.65;100907.81;5032200;28;20180;-71
2021/04/22 05:23:30;;;;;;;17.40;4.30;;;;;;;4.27;64.82;100916.31;5033631;28;20180;-71
2021/04/22 05:25:56;;;;;;;23.33;3.73;;;;;;;4.34;64.33;100918.75;5032046;28;20181;-71
2021/04/22 05:28:22;;;;;;;18.43;4.07;;;;;;;4.49;64.44;100909.56;5015396;28;20183;-71
2021/04/22 05:30:47;;;;;;;20.53;3.70;;;;;;;4.64;63.54;100924.16;5031824;28;20680;-71
2021/04/22 05:33:12;;;;;;;13.73;3.10;;;;;;;4.71;63.73;100918.63;5032744;28;20176;-71
2021/04/22 05:35:39;;;;;;;13.63;2.77;;;;;;;4.79;63.03;100930.78;5015683;28;20572;-66
2021/04/22 05:38:05;;;;;;;16.80;4.17;;;;;;;4.94;62.42;100925.09;5033339;28;20177;-66
2021/04/22 05:40:30;;;;;;;20.30;3.73;;;;;;;4.97;62.34;100932.94;5033244;28;20168;-66
2021/04/22 05:42:56;;;;;;;14.20;2.90;;;;;;;5.13;61.65;100928.06;5033153;28;20242;-66
2021/04/22 05:45:22;;;;;;;19.37;3.20;;;;;;;5.16;61.60;100918.25;5077555;22;20227;-66
2021/04/22 05:47:47;;;;;;;17.97;2.83;;;;;;;5.27;61.46;100924.13;5071773;28;20579;-67
2021/04/22 05:50:14;;;;;;;17.40;2.83;;;;;;;5.37;61.14;100932.63;5054985;28;20213;-65
2021/04/22 05:52:39;;;;;;;13.20;2.83;;;;;;;5.40;60.51;100929.91;5073064;28;20192;-66
2021/04/22 05:55:05;;;;;;;13.03;3.03;;;;;;;5.31;61.51;100933.69;5051314;28;20688;-66
2021/04/22 05:57:31;;;;;;;18.70;3.40;;;;;;;5.38;61.43;100937.03;5052504;28;20193;-66
2021/04/22 05:59:56;;;;;;;11.93;2.83;;;;;;;5.37;61.28;100930.00;5051455;28;20528;-68
2021/04/22 06:02:21;;;;;;;13.17;3.07;;;;;;;5.41;61.16;100922.81;5053714;28;20175;-68
2021/04/22 06:04:46;;;;;;;14.03;3.43;;;;;;;5.30;61.84;100926.66;5054125;28;20695;-67
2021/04/22 06:07:12;;;;;;;14.37;2.83;;;;;;;5.39;61.01;100938.75;5053445;28;20659;-68
2021/04/22 06:09:38;;;;;;;20.63;2.80;;;;;;;5.25;61.41;100917.13;5068505;28;20188;-70
2021/04/22 06:12:05;;;;;;;16.97;2.97;;;;;;;5.21;62.15;100918.13;5055090;28;20200;-67
2021/04/22 06:14:31;;;;;;;15.13;3.07;;;;;;;5.26;62.15;100910.94;5056391;28;20200;-68
2021/04/22 06:16:56;;;;;;;15.93;3.73;;;;;;;5.22;61.97;100926.03;5058725;28;20183;-68
2021/04/22 06:19:21;;;;;;;14.80;3.10;;;;;;;5.36;62.01;100940.63;5059346;28;20184;-68
2021/04/22 06:21:46;;;;;;;19.23;3.27;;;;;;;5.27;62.92;100912.66;5054863;28;20190;-68
2021/04/22 06:24:12;;;;;;;12.07;3.20;;;;;;;5.23;62.60;100934.84;5054278;28;20219;-68
2021/04/22 06:26:37;;;;;;;10.13;2.63;;;;;;;5.39;62.45;100929.94;5054370;28;20652;-68
2021/04/22 06:29:04;;;;;;;12.10;2.73;;;;;;;5.54;62.00;100937.41;5054184;28;20205;-68
2021/04/22 06:31:29;;;;;;;16.97;3.13;;;;;;;5.49;61.31;100904.91;5056520;28;20203;-67
2021/04/22 06:33:55;;;;;;;16.80;3.17;;;;;;;5.59;62.04;100941.69;5056412;28;20630;-68
2021/04/22 06:36:21;;;;;;;11.20;3.07;;;;;;;5.73;60.67;100945.66;5057063;28;20176;-68
2021/04/22 06:38:46;;;;;;;16.80;2.83;;;;;;;5.85;61.92;100946.13;5056832;28;20176;-68
2021/04/22 06:41:11;;;;;;;14.57;3.03;;;;;;;5.92;60.60;100933.59;5056144;28;20643;-69
2021/04/22 06:43:37;;;;;;;15.67;2.80;;;;;;;5.91;60.57;100961.88;5056852;28;20175;-68
2021/04/22 06:46:02;;;;;;;14.40;2.93;;;;;;;6.03;60.29;100957.97;5056330;28;20258;-68
2021/04/22 06:48:28;;;;;;;14.37;3.67;;;;;;;6.04;61.19;100953.56;5056421;28;20190;-68
2021/04/22 06:50:53;;;;;;;9.03;2.90;;;;;;;6.25;60.23;100960.78;5055746;28;20195;-68
2021/04/22 06:53:18;;;;;;;12.97;2.67;;;;;;;6.01;59.78;100958.94;5055928;28;20528;-68
2021/04/22 06:55:44;;;;;;;15.80;3.20;;;;;;;5.89;60.38;100971.66;5055734;28;20647;-68
2021/04/22 06:58:09;;;;;;;15.13;3.23;;;;;;;6.05;60.49;100971.19;5071114;28;20226;-68
2021/04/22 07:00:38;;;;;;;17.93;3.13;;;;;;;6.16;59.34;100964.59;5055659;28;20654;-68
2021/04/22 07:03:04;;;;;;;13.43;3.00;;;;;;;6.14;59.64;100969.09;5054440;28;20697;-68
2021/04/22 07:05:29;;;;;;;13.93;3.23;;;;;;;6.15;59.69;100967.31;5055529;28;20679;-68
2021/04/22 07:07:54;;;;;;;17.03;3.00;;;;;;;6.17;59.46;100969.00;5054377;28;20175;-68
2021/04/22 07:10:20;;;;;;;13.03;2.70;;;;;;;6.21;60.35;100967.09;5070951;28;20321;-69
2021/04/22 07:12:46;;;;;;;17.10;3.17;;;;;;;6.16;59.73;100979.66;5055875;28;20179;-68
2021/04/22 07:15:12;;;;;;;13.33;2.90;;;;;;;6.25;59.36;100959.00;5070809;28;20221;-68
2021/04/22 07:17:39;;;;;;;13.30;4.37;;;;;;;6.21;59.68;100972.41;5056012;28;20210;-69
2021/04/22 07:20:14;;;;;;;10.53;2.47;;;;;;;6.42;59.00;100963.75;5055561;28;20187;-69
2021/04/22 07:22:39;;;;;;;17.43;3.00;;;;;;;6.38;59.53;100970.09;5054682;28;20165;-69
2021/04/22 07:25:06;;;;;;;14.13;2.87;;;;;;;6.53;58.57;101014.63;5070564;28;20278;-68
2021/04/22 07:27:31;;;;;;;18.03;3.17;;;;;;;6.40;58.83;100984.16;5070589;28;20180;-68
2021/04/22 07:29:56;;;;;;;11.13;2.67;;;;;;;6.41;59.24;100983.22;5055053;28;20182;-67
2021/04/22 07:32:22;;;;;;;13.47;2.70;;;;;;;6.59;58.24;101027.69;5054845;28;20267;-67
2021/04/22 07:34:48;;;;;;;16.87;3.50;;;;;;;6.60;58.96;100994.06;5053951;28;20258;-67
2021/04/22 07:37:14;;;;;;;11.07;2.97;;;;;;;6.55;58.89;100966.84;5053944;28;20172;-68
2021/04/22 07:39:40;;;;;;;10.50;2.50;;;;;;;6.63;58.68;100988.66;5053034;28;20211;-68
2021/04/22 07:42:06;;;;;;;14.67;2.27;;;;;;;6.93;57.85;100999.13;5054791;28;20199;-68
2021/04/22 07:44:31;;;;;;;11.97;2.57;;;;;;;7.12;56.97;100989.63;5069813;28;20218;-68
2021/04/22 07:46:56;;;;;;;21.73;3.30;;;;;;;6.59;58.07;100990.56;5053766;28;20183;-68
2021/04/22 07:49:22;;;;;;;13.33;3.43;;;;;;;6.84;57.19;100979.09;5055014;28;20198;-68
2021/04/22 07:51:47;;;;;;;14.17;2.93;;;;;;;6.99;56.69;101012.19;5054661;28;20199;-69
2021/04/22 07:54:12;;;;;;;15.47;2.60;;;;;;;7.28;55.95;101004.06;5054697;28;20244;-69
2021/04/22 07:56:38;;;;;;;18.60;2.87;;;;;;;7.56;56.14;101001.25;5070494;28;20217;-69
2021/04/22 07:59:04;;;;;;;11.63;2.47;;;;;;;7.67;55.43;101004.34;5070204;28;20531;-68
2021/04/22 08:01:29;;;;;;;11.87;2.57;;;;;;;7.39;54.81;101020.44;5054476;28;20202;-68
2021/04/22 08:03:55;;;;;;;12.87;2.50;;;;;;;7.48;54.17;101021.91;5052980;28;20590;-68
2021/04/22 08:06:20;;;;;;;11.47;2.80;;;;;;;6.98;55.32;101019.28;5054361;28;20268;-68
2021/04/22 08:08:46;;;;;;;14.53;3.37;;;;;;;7.43;55.32;101022.09;5053024;28;20689;-68
2021/04/22 08:11:11;;;;;;;13.73;2.93;;;;;;;7.47;55.00;101012.22;5054276;28;20195;-69
2021/04/22 08:13:37;;;;;;;13.77;3.37;;;;;;;7.24;55.59;101014.84;5054118;28;20204;-68
2021/04/22 08:16:03;;;;;;;13.50;4.00;;;;;;;7.41;55.58;101023.91;5054262;28;20252;-68
2021/04/22 08:18:28;;;;;;;11.13;2.90;;;;;;;7.52;53.93;101027.06;5054158;28;20187;-67
2021/04/22 08:20:56;;;;;;;12.47;2.60;;;;;;;7.68;53.33;101016.72;5054176;28;20690;-68
2021/04/22 08:23:23;;;;;;;11.27;2.67;;;;;;;8.00;52.89;101026.09;5053906;28;20604;-68
2021/04/22 08:25:53;;;;;;;25.80;3.47;;;;;;;7.56;53.59;101033.13;5052607;28;20199;-68
2021/04/22 08:28:19;;;;;;;9.37;2.00;;;;;;;7.47;53.41;101034.34;5052798;28;20225;-68
2021/04/22 08:30:54;;;;;;;13.93;2.37;;;;;;;7.63;54.41;101033.75;5052590;28;20199;-68
2021/04/22 08:33:21;;;;;;;13.13;3.00;;;;;;;7.67;55.11;101030.06;5053206;28;20563;-68
2021/04/22 08:35:46;;;;;;;15.03;3.00;;;;;;;8.23;53.54;101027.88;5054807;28;20289;-68
2021/04/22 08:38:11;;;;;;;16.77;2.40;;;;;;;8.63;51.56;101034.25;5053936;28;20250;-69
2021/04/22 08:40:37;;;;;;;8.23;2.50;;;;;;;8.15;51.89;101012.19;5053977;28;20254;-67
2021/04/22 08:43:02;;;;;;;14.77;2.43;;;;;;;7.91;53.73;101044.22;5053138;28;20221;-70
2021/04/22 08:45:28;;;;;;;10.40;2.77;;;;;;;7.50;55.68;101051.94;5053728;28;20306;-68
2021/04/22 08:47:54;;;;;;;12.43;2.43;;;;;;;7.58;55.29;101043.69;5054051;28;20178;-68
2021/04/22 08:50:25;;;;;;;14.13;2.97;;;;;;;7.46;54.48;101068.91;5052903;28;20171;-69
2021/04/22 08:52:54;;;;;;;18.23;2.90;;;;;;;7.93;53.49;101053.84;5051605;28;20619;-68
2021/04/22 08:55:22;;;;;;;13.97;2.63;;;;;;;8.58;51.25;101058.38;5053760;28;20236;-70
2021/04/22 08:57:48;;;;;;;12.10;2.60;;;;;;;8.94;50.25;101036.50;5052682;28;20174;-68
2021/04/22 09:00:16;;;;;;;12.33;2.40;;;;;;;8.18;51.48;101043.13;5053623;28;20167;-68
2021/04/22 09:02:42;;;;;;;10.33;2.33;;;;;;;7.41;53.29;101050.47;5052176;28;20271;-67
2021/04/22 09:05:09;;;;;;;8.57;2.57;;;;;;;7.26;53.42;101044.84;5053323;28;20278;-68
2021/04/22 09:07:34;;;;;;;15.47;3.87;;;;;;;7.20;53.71;101045.94;5051987;28;20189;-69
2021/04/22 09:10:00;;;;;;;13.63;2.87;;;;;;;7.41;52.77;101073.50;5053354;28;20175;-68
2021/04/22 09:12:26;;;;;;;10.70;2.87;;;;;;;8.23;51.59;101057.13;5053564;28;20205;-68
2021/04/22 09:14:58;;;;;;;9.97;2.13;;;;;;;8.50;50.43;101046.31;5051999;28;20195;-68
2021/04/22 09:17:24;;;;;;;10.27;2.90;;;;;;;8.72;49.83;101049.81;5052410;28;20247;-69
2021/04/22 09:19:49;;;;;;;9.40;1.97;;;;;;;8.59;50.42;101053.94;5053125;28;20199;-68
2021/04/22 09:22:15;;;;;;;9.20;2.43;;;;;;;8.12;50.72;101038.03;5053286;28;20171;-68
2021/04/22 09:24:40;;;;;;;12.93;2.70;;;;;;;8.16;50.66;101063.56;5035156;28;20230;-68
2021/04/22 09:27:13;;;;;;;7.83;2.20;;;;;;;8.64;50.58;101066.13;5052986;28;20179;-68
2021/04/22 09:29:44;;;;;;;10.97;2.70;;;;;;;9.20;48.99;101065.50;5052048;28;20224;-69
2021/04/22 09:32:17;;;;;;;9.90;2.33;;;;;;;9.37;48.31;101075.44;5051657;28;20195;-68
2021/04/22 09:34:59;;;;;;;15.33;2.67;;;;;;;8.83;48.64;101075.97;5052718;28;20198;-67
2021/04/22 09:37:41;;;;;;;8.23;2.37;;;;;;;8.41;47.68;101059.06;5052926;28;20269;-67
2021/04/22 09:40:26;;;;;;;9.33;2.10;;;;;;;8.69;48.58;101065.91;5051180;28;20266;-67
2021/04/22 09:42:53;;;;;;;7.67;2.40;;;;;;;8.43;46.46;101059.84;5067935;28;20159;-68
2021/04/22 09:45:21;;;;;;;7.97;1.60;;;;;;;8.76;43.97;101070.91;5052291;28;20215;-67
2021/04/22 09:47:46;;;;;;;5.37;1.53;;;;;;;8.91;43.00;101073.84;5052345;28;20183;-67
2021/04/22 09:50:16;;;;;;;4.63;1.60;;;;;;;9.51;42.64;101083.66;5051335;28;20172;-69
2021/04/22 09:52:46;;;;;;;7.67;1.73;;;;;;;9.74;42.17;101066.66;5052271;28;20274;-68
2021/04/22 09:55:16;;;;;;;6.80;1.60;;;;;;;9.15;45.74;101078.16;5052429;28;20591;-68
2021/04/22 09:57:42;;;;;;;11.43;1.83;;;;;;;8.86;46.23;101083.84;5067737;28;20225;-68
2021/04/22 10:00:22;;;;;;;8.43;2.00;;;;;;;9.33;44.53;101085.34;5051336;28;20176;-67
2021/04/22 10:02:55;;;;;;;5.30;1.40;;;;;;;9.46;42.77;101088.34;5052965;28;20681;-68
2021/04/22 10:05:22;;;;;;;11.37;2.00;;;;;;;9.26;42.72;101061.69;5055381;28;20199;-69
2021/04/22 10:07:47;;;;;;;5.27;1.80;;;;;;;9.69;42.33;101056.22;5055499;28;20281;-69
2021/04/22 10:10:17;;;;;;;7.40;2.27;;;;;;;10.00;39.50;101073.44;5055256;28;20638;-69
2021/04/22 10:12:42;;;;;;;6.10;1.77;;;;;;;10.29;37.99;101074.75;5055470;28;20211;-68
2021/04/22 10:15:19;;;;;;;8.27;1.43;;;;;;;10.56;39.27;101076.09;5056293;28;20245;-69
2021/04/22 10:18:05;;;;;;;9.07;1.83;;;;;;;10.34;38.88;101081.59;5055140;28;20505;-69
2021/04/22 10:20:33;;;;;;;5.73;1.50;;;;;;;9.89;40.04;101075.72;5055216;28;20167;-68
2021/04/22 10:22:59;;;;;;;4.60;1.73;;;;;;;10.19;38.94;101092.13;5054931;28;20250;-68
2021/04/22 10:25:30;;;;;;;4.13;1.70;;;;;;;10.01;38.48;101072.50;5055930;28;20667;-68
2021/04/22 10:28:02;;;;;;;7.00;1.37;;;;;;;9.93;38.74;101080.00;5054992;28;20176;-69
2021/04/22 10:30:28;;;;;;;14.13;2.47;;;;;;;10.16;38.97;101078.91;5054995;28;20213;-68
2021/04/22 10:32:53;;;;;;;9.03;1.90;;;;;;;10.08;39.55;101105.09;5056429;28;20184;-68
2021/04/22 10:35:24;;;;;;;3.77;1.17;;;;;;;10.70;37.61;101099.44;5054754;28;20653;-68
2021/04/22 10:37:53;;;;;;;4.80;1.50;;;;;;;10.20;35.49;101102.75;5037949;28;20178;-68
2021/04/22 10:40:20;;;;;;;5.83;1.83;;;;;;;10.38;36.28;101087.66;5054653;28;20180;-68
2021/04/22 10:42:47;;;;;;;6.03;1.87;;;;;;;9.97;37.95;101100.22;5055665;28;20608;-68
2021/04/22 10:45:16;;;;;;;3.77;1.40;;;;;;;10.72;37.54;101091.34;5054613;28;20207;-68
2021/04/22 10:47:42;;;;;;;4.53;1.23;;;;;;;11.09;37.24;101090.38;5055736;28;20171;-68
2021/04/22 10:50:32;;;;;;;3.67;1.27;;;;;;;10.65;36.41;101089.00;5055981;28;20516;-68
2021/04/22 10:52:59;;;;;;;5.60;1.60;;;;;;;11.12;36.17;101088.41;5055418;28;20213;-69
2021/04/22 10:55:29;;;;;;;8.03;1.63;;;;;;;10.60;35.98;101096.34;5055102;28;20222;-68
2021/04/22 10:57:56;;;;;;;9.77;1.80;;;;;;;9.81;37.75;101096.56;5056078;28;20226;-68
2021/04/22 11:00:27;;;;;;;4.37;1.93;;;;;;;10.45;38.11;101094.44;5054292;28;20184;-68
2021/04/22 11:02:55;;;;;;;6.83;1.33;;;;;;;10.68;37.59;101097.78;5054560;28;20582;-68
2021/04/22 11:05:29;;;;;;;7.93;1.67;;;;;;;11.74;34.41;101102.13;5054052;28;20332;-68
2021/04/22 11:08:03;;;;;;;6.87;1.20;;;;;;;13.06;32.50;101125.97;5054761;28;20214;-68
2021/04/22 11:10:41;;;;;;;6.27;1.13;;;;;;;13.83;31.78;101103.47;5054404;28;20677;-68
2021/04/22 11:13:27;;;;;;;6.93;1.77;;;;;;;13.16;32.02;101105.69;5054289;28;20182;-68
2021/04/22 11:15:53;;;;;;;10.13;1.57;;;;;;;11.91;34.02;101122.66;5054646;28;20191;-68
2021/04/22 11:18:18;;;;;;;5.50;1.70;;;;;;;11.38;35.50;101089.75;5055117;28;20670;-68
2021/04/22 11:20:44;;;;;;;5.03;1.77;;;;;;;12.63;33.45;101103.44;5053815;28;20175;-68
2021/04/22 11:23:20;;;;;;;6.27;1.70;;;;;;;15.05;29.46;101088.34;5053978;28;20707;-68
2021/04/22 11:25:50;;;;;;;5.57;1.83;;;;;;;13.90;30.80;101120.91;5070368;28;20210;-68